Tampa, FL (33601)

6:46 AM EST on February 28, 2017 (GMT -0500)
The University of Tampa | | Change Station
Active Advisory: Special Statement

Elev 30 ft 27.95 °N, 82.46 °W | Updated 20 seconds ago

Mostly Cloudy
Mostly Cloudy
68.7 °F
Feels Like 68.7 °F
N
4.9
Wind Variable Wind from SE
Gusts 14.0 mph

Today
High -- | Low -- °F
--% Chance of Precip.
Yesterday
High -- | Low -- °F
Precip. -- in
Pressure 30.25 in
Visibility 7.0 miles
Clouds Mostly Cloudy 11000 ft
Dew Point 67 °F
Humidity 94%
Rainfall 0.00 in
Snow Depth Not available.
6:55 AM 6:29 PM
Waxing Crescent, 4% visible
METAR KTPF 281135Z AUTO 13003KT 7SM BKN110 21/21 A3025 RMK AO2
Pressure 30.25 in
Visibility 7.0 miles
Clouds Mostly Cloudy 11000 ft
Dew Point 67 °F
Humidity 94%
Rainfall 0.00 in
Snow Depth Not available.
6:55 AM 6:29 PM
Waxing Crescent, 4% visible
METAR KTPF 281135Z AUTO 13003KT 7SM BKN110 21/21 A3025 RMK AO2

Get Your Daily Forecast Email!

Thanks for signing up!

Be on the lookout for a verification email in your inbox.

You'll start receiving the daily forecast at 8 AM.

×

10-Day Weather Forecast

Almanac

Astronomy

Feb. 28, 2017 Rise Set
Actual Time
Civil Twilight
Nautical Twilight
Astronomical Twilight
Moon
Length of Visible Light
Length of Day
Tomorrow will be .
, % of the Moon is Illuminated

Today's Extremes

State Highs State Lows

Community

WunderPhotos

Upload Photos

1,962,540 photos uploaded!

WunderBlog® & News

Nearby

Air Quality

  Air Quality AQ Index Pollutant
Not available.

Snow Depth

Station Depth Elevation

Earthquake Activity

City Distance Mag. Time & Date
Minimum magnitude displayed is 2.5.

Coastal Water Temperatures

Place Temperature

Stations

Nearby Weather Stations

Station Location Temp. Windchill Dew Point Humidity Wind Precip. Elev Updated Type
                   

Watches & Warnings

Special Statement
Issued: 6:37 AM EST Feb. 28, 2017 – National Weather Service

... Locally dense fog through sunrise...

Patchy to areas of fog will continue across the region through
sunrise. Some of the fog will be locally dense fog at times which
will reduce visibilities to one quarter mile or less in some
locations. Motorists are urged to slow down, leave plenty of space
between the car in front of you, and to use their low beam
headlights if encountering fog this morning. The fog is expected
to burn off shortly after sunrise with improving conditions
expected.


McMichael